createdAt,value
2019-02-17T00:00:37.179Z,39.87
2019-02-17T00:03:10.299Z,36.23
2019-02-17T00:05:43.307Z,34.57
2019-02-17T00:08:16.193Z,30.20
2019-02-17T00:10:49.118Z,33.40
2019-02-17T00:13:22.127Z,39.53
2019-02-17T00:15:55.190Z,34.63
2019-02-17T00:18:28.038Z,32.50
2019-02-17T00:21:00.829Z,35.23
2019-02-17T00:23:33.944Z,33.17
2019-02-17T00:26:06.795Z,33.20
2019-02-17T00:28:39.748Z,30.03
2019-02-17T00:31:12.795Z,32.13
2019-02-17T00:33:45.613Z,31.93
2019-02-17T00:36:18.678Z,30.80
2019-02-17T00:38:51.843Z,33.77
2019-02-17T00:41:24.789Z,32.07
2019-02-17T00:43:57.774Z,31.27
2019-02-17T00:46:30.558Z,36.00
2019-02-17T00:49:03.488Z,36.10
2019-02-17T00:51:36.394Z,35.30
2019-02-17T00:54:09.558Z,31.23
2019-02-17T00:56:42.353Z,31.73
2019-02-17T00:59:15.184Z,44.47
2019-02-17T01:01:48.389Z,39.13
2019-02-17T01:04:21.669Z,34.30
2019-02-17T01:06:54.561Z,33.37
2019-02-17T01:09:28.607Z,38.87
2019-02-17T01:12:01.497Z,33.13
2019-02-17T01:14:34.601Z,36.67
2019-02-17T01:17:07.842Z,35.87
2019-02-17T01:19:40.855Z,34.03
2019-02-17T01:22:14.035Z,37.73
2019-02-17T01:24:47.107Z,35.07
2019-02-17T01:27:19.858Z,37.73
2019-02-17T01:29:52.696Z,33.23
2019-02-17T01:32:25.546Z,36.13
2019-02-17T01:34:58.395Z,36.03
2019-02-17T01:37:31.272Z,37.67
2019-02-17T01:40:05.024Z,39.20
2019-02-17T01:42:38.142Z,34.43
2019-02-17T01:45:11.352Z,37.23
2019-02-17T01:47:44.322Z,33.83
2019-02-17T01:50:17.211Z,35.70
2019-02-17T01:52:50.115Z,38.70
2019-02-17T01:55:23.197Z,35.13
2019-02-17T01:57:56.012Z,36.53
2019-02-17T02:00:28.863Z,40.87
2019-02-17T02:03:01.672Z,35.90
2019-02-17T02:05:34.561Z,34.13
2019-02-17T02:08:07.308Z,35.77
2019-02-17T02:10:40.350Z,38.33
2019-02-17T02:13:13.357Z,38.60
2019-02-17T02:15:46.255Z,33.00
2019-02-17T02:18:19.367Z,35.50
2019-02-17T02:20:52.225Z,32.70
2019-02-17T02:23:25.205Z,35.97
2019-02-17T02:25:58.235Z,35.30
2019-02-17T02:28:31.156Z,38.20
2019-02-17T02:31:03.887Z,33.97
2019-02-17T02:33:36.708Z,39.77
2019-02-17T02:36:09.565Z,33.77
2019-02-17T02:38:42.491Z,37.43
2019-02-17T02:41:15.248Z,33.47
2019-02-17T02:43:48.152Z,37.10
2019-02-17T02:46:21.140Z,37.67
2019-02-17T02:48:54.165Z,37.53
2019-02-17T02:51:27.172Z,36.03
2019-02-17T02:54:00.071Z,35.07
2019-02-17T02:56:33.091Z,34.73
2019-02-17T02:59:05.821Z,38.70
2019-02-17T03:01:38.612Z,39.20
2019-02-17T03:04:11.446Z,36.87
2019-02-17T03:06:50.319Z,40.10
2019-02-17T03:09:23.239Z,33.30
2019-02-17T03:11:56.396Z,35.53
2019-02-17T03:14:29.309Z,37.60
2019-02-17T03:17:02.509Z,37.10
2019-02-17T03:19:35.421Z,38.33
2019-02-17T03:22:08.332Z,33.60
2019-02-17T03:24:41.057Z,41.50
2019-02-17T03:27:14.062Z,43.67
2019-02-17T03:29:47.149Z,42.40
2019-02-17T03:32:20.222Z,35.43
2019-02-17T03:34:53.353Z,38.83
2019-02-17T03:37:26.079Z,41.03
2019-02-17T03:39:58.852Z,38.83
2019-02-17T03:42:31.794Z,42.43
2019-02-17T03:45:05.191Z,38.83
2019-02-17T03:47:38.239Z,40.00
2019-02-17T03:50:11.274Z,41.47
2019-02-17T03:52:44.256Z,41.60
2019-02-17T03:55:17.247Z,34.40
2019-02-17T03:57:51.090Z,38.70
2019-02-17T04:00:23.846Z,36.37
2019-02-17T04:02:56.941Z,38.93
2019-02-17T04:05:30.009Z,36.37
2019-02-17T04:08:02.852Z,40.83
2019-02-17T04:10:35.721Z,32.70
2019-02-17T04:13:08.628Z,38.50
2019-02-17T04:15:41.471Z,40.00
2019-02-17T04:18:14.300Z,39.00
2019-02-17T04:20:47.185Z,47.17
2019-02-17T04:23:30.478Z,45.47
2019-02-17T04:25:55.856Z,47.67
2019-02-17T04:28:28.608Z,42.43
2019-02-17T04:31:01.431Z,39.90
2019-02-17T04:33:34.337Z,41.77
2019-02-17T04:36:07.516Z,46.00
2019-02-17T04:38:40.371Z,42.77
2019-02-17T04:41:13.110Z,47.10
2019-02-17T04:43:45.901Z,50.57
2019-02-17T04:46:18.746Z,42.10
2019-02-17T04:48:51.792Z,42.07
2019-02-17T04:51:25.091Z,42.10
2019-02-17T04:53:58.420Z,40.70
2019-02-17T04:56:31.422Z,43.27
2019-02-17T04:59:04.411Z,42.23
2019-02-17T05:01:37.494Z,48.70
2019-02-17T05:04:10.507Z,52.10
2019-02-17T05:06:43.603Z,50.27
2019-02-17T05:09:16.862Z,49.73
2019-02-17T05:11:49.744Z,49.30
2019-02-17T05:14:22.783Z,49.30
2019-02-17T05:16:55.537Z,51.90
2019-02-17T05:19:28.438Z,52.20
2019-02-17T05:22:01.211Z,52.50
2019-02-17T05:24:34.036Z,50.93
2019-02-17T05:27:06.817Z,54.57
2019-02-17T05:29:39.976Z,58.73
2019-02-17T05:32:12.931Z,53.57
2019-02-17T05:34:45.787Z,50.20
2019-02-17T05:37:18.663Z,49.17
2019-02-17T05:39:51.512Z,52.07
2019-02-17T05:42:24.442Z,54.63
2019-02-17T05:44:57.424Z,56.93
2019-02-17T05:47:30.414Z,61.37
2019-02-17T05:50:03.681Z,50.27
2019-02-17T05:52:36.581Z,53.47
2019-02-17T05:55:09.605Z,58.17
2019-02-17T05:57:42.393Z,52.60
2019-02-17T06:00:17.135Z,51.20
2019-02-17T06:02:50.029Z,60.03
2019-02-17T06:05:23.005Z,52.63
2019-02-17T06:07:55.945Z,53.60
2019-02-17T06:10:29.108Z,54.17
2019-02-17T06:13:02.112Z,47.47
2019-02-17T06:15:35.083Z,46.53
2019-02-17T06:18:08.677Z,45.63
2019-02-17T06:20:41.454Z,51.00
2019-02-17T06:23:14.265Z,51.00
2019-02-17T06:25:47.144Z,50.27
2019-02-17T06:28:20.137Z,47.43
2019-02-17T06:30:53.027Z,51.57
2019-02-17T06:33:25.850Z,49.77
2019-02-17T06:35:59.023Z,51.87
2019-02-17T06:38:31.925Z,46.93
2019-02-17T06:41:04.865Z,50.87
2019-02-17T06:43:37.818Z,50.67
2019-02-17T06:46:13.745Z,50.43
2019-02-17T06:48:47.135Z,49.47
2019-02-17T06:51:19.853Z,48.97
2019-02-17T06:53:53.007Z,51.20
2019-02-17T06:57:00.545Z,46.93
2019-02-17T06:59:33.643Z,43.47
2019-02-17T07:02:06.514Z,51.57
2019-02-17T07:04:57.917Z,46.83
2019-02-17T07:07:31.095Z,44.47
2019-02-17T07:10:04.354Z,42.40
2019-02-17T07:12:37.439Z,42.67
2019-02-17T07:15:10.444Z,44.20
2019-02-17T07:17:43.495Z,47.93
2019-02-17T07:20:16.609Z,40.23
2019-02-17T07:22:49.811Z,41.67
2019-02-17T07:25:29.639Z,38.33
2019-02-17T07:27:57.754Z,42.13
2019-02-17T07:30:31.120Z,39.37
2019-02-17T07:33:04.161Z,36.87
2019-02-17T07:35:37.144Z,44.30
2019-02-17T07:38:10.141Z,38.80
2019-02-17T07:40:43.044Z,42.27
2019-02-17T07:43:15.947Z,36.87
2019-02-17T07:45:48.861Z,50.77
2019-02-17T07:48:21.967Z,41.17
2019-02-17T07:50:56.812Z,58.63
2019-02-17T07:53:29.914Z,38.93
2019-02-17T07:56:02.896Z,39.73
2019-02-17T07:58:35.920Z,42.20
2019-02-17T08:01:08.705Z,44.53
2019-02-17T08:03:41.691Z,40.03
2019-02-17T08:06:14.721Z,41.60
2019-02-17T08:08:47.901Z,43.03
2019-02-17T08:11:20.890Z,35.97
2019-02-17T08:13:54.149Z,35.47
2019-02-17T08:16:27.288Z,38.43
2019-02-17T08:19:00.425Z,36.00
2019-02-17T08:21:33.436Z,36.17
2019-02-17T08:24:06.530Z,34.37
2019-02-17T08:26:39.846Z,38.57
2019-02-17T08:29:13.798Z,38.80
2019-02-17T08:31:55.162Z,34.33
2019-02-17T08:34:21.445Z,35.87
2019-02-17T08:36:54.445Z,34.67
2019-02-17T08:39:27.567Z,33.33
2019-02-17T08:42:00.452Z,34.47
2019-02-17T08:44:33.528Z,34.00
2019-02-17T08:47:06.567Z,34.20
2019-02-17T08:49:40.026Z,34.97
2019-02-17T08:52:12.862Z,40.00
2019-02-17T08:54:46.089Z,31.93
2019-02-17T08:57:19.122Z,33.83
2019-02-17T08:59:51.997Z,38.90
2019-02-17T09:02:24.761Z,32.07
2019-02-17T09:04:57.920Z,38.43
2019-02-17T09:07:30.945Z,32.50
2019-02-17T09:10:04.616Z,30.70
2019-02-17T09:12:37.472Z,29.45
2019-02-17T09:15:10.957Z,35.83
2019-02-17T09:17:43.771Z,30.00
2019-02-17T09:20:16.692Z,32.57
2019-02-17T09:22:49.618Z,30.70
2019-02-17T09:25:22.707Z,47.27
2019-02-17T09:27:55.876Z,31.90
2019-02-17T09:30:28.976Z,29.85
2019-02-17T09:33:02.107Z,26.20
2019-02-17T09:35:35.146Z,32.17
2019-02-17T09:38:08.265Z,28.60
2019-02-17T09:40:41.337Z,35.60
2019-02-17T09:43:14.214Z,32.80
2019-02-17T09:45:47.089Z,32.23
2019-02-17T09:48:20.039Z,71.87
2019-02-17T09:50:52.904Z,29.82
2019-02-17T09:53:25.984Z,32.20
2019-02-17T09:55:59.568Z,28.07
2019-02-17T09:58:32.322Z,26.12
2019-02-17T10:01:05.247Z,28.20
2019-02-17T10:03:38.248Z,25.55
2019-02-17T10:06:11.221Z,29.30
2019-02-17T10:08:44.395Z,27.60
2019-02-17T10:11:17.634Z,33.58
2019-02-17T10:13:50.696Z,28.60
2019-02-17T10:16:23.576Z,29.25
2019-02-17T10:18:56.541Z,28.57
2019-02-17T10:21:29.630Z,29.25
2019-02-17T10:24:02.628Z,36.33
2019-02-17T10:26:35.646Z,27.82
2019-02-17T10:29:08.709Z,32.08
2019-02-17T10:31:41.571Z,32.30
2019-02-17T10:34:14.373Z,27.15
2019-02-17T10:36:47.212Z,30.95
2019-02-17T10:39:20.263Z,29.67
2019-02-17T10:41:53.283Z,54.77
2019-02-17T10:44:26.253Z,25.68
2019-02-17T10:46:59.262Z,31.00
2019-02-17T10:49:32.408Z,25.60
2019-02-17T10:52:05.424Z,29.00
2019-02-17T10:54:38.553Z,25.75
2019-02-17T10:57:11.462Z,27.62
2019-02-17T10:59:44.527Z,26.05
2019-02-17T11:02:17.654Z,26.42
2019-02-17T11:04:51.854Z,28.07
2019-02-17T11:07:24.702Z,24.90
2019-02-17T11:09:57.602Z,26.02
2019-02-17T11:12:30.594Z,23.57
2019-02-17T11:15:06.189Z,21.52
2019-02-17T11:17:39.032Z,24.82
2019-02-17T11:20:11.977Z,27.40
2019-02-17T11:22:44.979Z,24.55
2019-02-17T11:25:18.079Z,24.55
2019-02-17T11:27:51.059Z,21.75
2019-02-17T11:30:24.003Z,25.72
2019-02-17T11:32:58.319Z,25.10
2019-02-17T11:35:31.619Z,26.07
2019-02-17T11:38:05.687Z,26.02
2019-02-17T11:40:39.848Z,24.43
2019-02-17T11:43:12.913Z,20.77
2019-02-17T11:45:45.987Z,26.20
2019-02-17T11:48:19.392Z,21.57
2019-02-17T11:50:52.489Z,24.52
2019-02-17T11:53:25.564Z,23.52
2019-02-17T11:55:58.814Z,22.48
2019-02-17T11:58:31.948Z,23.62
2019-02-17T12:01:05.529Z,24.15
2019-02-17T12:03:38.603Z,23.02
2019-02-17T12:06:11.702Z,20.10
2019-02-17T12:08:47.065Z,19.05
2019-02-17T12:11:19.994Z,24.70
2019-02-17T12:13:53.376Z,20.50
2019-02-17T12:16:36.550Z,23.10
2019-02-17T12:19:01.039Z,19.30
2019-02-17T12:21:59.683Z,24.27
2019-02-17T12:24:48.006Z,20.23
2019-02-17T12:27:53.008Z,25.27
2019-02-17T12:30:26.063Z,20.32
2019-02-17T12:32:59.074Z,19.67
2019-02-17T12:35:32.054Z,19.55
2019-02-17T12:38:04.988Z,21.10
2019-02-17T12:40:38.898Z,20.65
2019-02-17T12:43:11.788Z,21.33
2019-02-17T12:45:44.810Z,23.50
2019-02-17T12:48:17.748Z,21.05
2019-02-17T12:50:50.649Z,21.97
2019-02-17T12:53:23.439Z,21.68
2019-02-17T12:55:56.241Z,24.65
2019-02-17T12:58:30.231Z,17.40
2019-02-17T13:01:04.178Z,27.30
2019-02-17T13:03:37.410Z,22.98
2019-02-17T13:06:10.485Z,20.37
2019-02-17T13:08:43.494Z,17.85
2019-02-17T13:11:16.701Z,18.27
2019-02-17T13:13:49.789Z,27.80
2019-02-17T13:16:22.805Z,20.05
2019-02-17T13:18:55.976Z,18.65
2019-02-17T13:21:29.056Z,20.37
2019-02-17T13:24:01.888Z,24.43
2019-02-17T13:26:34.734Z,23.42
2019-02-17T13:29:07.602Z,18.98
2019-02-17T13:31:40.619Z,18.37
2019-02-17T13:34:13.649Z,21.87
2019-02-17T13:36:47.251Z,19.27
2019-02-17T13:39:20.376Z,22.07
2019-02-17T13:41:53.528Z,14.98
2019-02-17T13:44:26.576Z,19.10
2019-02-17T13:46:59.485Z,16.95
2019-02-17T13:49:32.435Z,21.50
2019-02-17T13:52:05.391Z,39.90
2019-02-17T13:54:38.371Z,17.85
2019-02-17T13:57:11.406Z,20.15
2019-02-17T13:59:44.346Z,19.42
2019-02-17T14:02:17.284Z,16.17
2019-02-17T14:04:50.217Z,21.37
2019-02-17T14:07:23.110Z,18.50
2019-02-17T14:09:56.034Z,16.27
2019-02-17T14:12:29.036Z,17.07
2019-02-17T14:15:02.203Z,18.07
2019-02-17T14:17:35.186Z,16.48
2019-02-17T14:20:09.991Z,17.73
2019-02-17T14:22:43.961Z,17.80
2019-02-17T14:25:17.005Z,19.35
2019-02-17T14:27:49.875Z,16.67
2019-02-17T14:30:23.407Z,16.50
2019-02-17T14:32:56.241Z,16.10
2019-02-17T14:35:29.134Z,14.85
2019-02-17T14:38:02.036Z,12.45
2019-02-17T14:40:35.001Z,13.95
2019-02-17T14:43:07.899Z,13.80
2019-02-17T14:45:40.780Z,14.23
2019-02-17T14:48:13.694Z,12.20
2019-02-17T14:50:46.751Z,15.48
2019-02-17T14:53:19.831Z,14.95
2019-02-17T14:55:52.886Z,15.05
2019-02-17T14:58:26.074Z,14.65
2019-02-17T15:00:59.090Z,13.15
2019-02-17T15:03:32.010Z,13.03
2019-02-17T15:06:05.115Z,14.40
2019-02-17T15:08:38.180Z,41.25
2019-02-17T15:11:11.047Z,14.03
2019-02-17T15:13:44.103Z,14.47
2019-02-17T15:16:17.105Z,15.38
2019-02-17T15:18:50.178Z,17.17
2019-02-17T15:21:23.271Z,12.85
2019-02-17T15:23:56.232Z,12.03
2019-02-17T15:26:29.315Z,13.10
2019-02-17T15:29:02.384Z,16.23
2019-02-17T15:31:36.417Z,16.67
2019-02-17T15:34:18.076Z,15.72
2019-02-17T15:36:45.892Z,14.60
2019-02-17T15:39:18.911Z,16.62
2019-02-17T15:41:52.087Z,16.77
2019-02-17T15:44:25.165Z,18.35
2019-02-17T15:46:58.230Z,16.75
2019-02-17T15:49:32.234Z,16.65
2019-02-17T15:52:05.196Z,15.78
2019-02-17T15:54:38.376Z,14.50
2019-02-17T15:57:11.168Z,15.43
2019-02-17T15:59:45.046Z,14.47
2019-02-17T16:02:18.060Z,15.05
2019-02-17T16:04:51.203Z,13.15
2019-02-17T16:07:24.165Z,16.20
2019-02-17T16:09:57.129Z,16.50
2019-02-17T16:12:30.141Z,14.73
2019-02-17T16:15:03.204Z,14.38
2019-02-17T16:17:36.048Z,16.77
2019-02-17T16:20:10.760Z,14.68
2019-02-17T16:22:43.929Z,13.68
2019-02-17T16:25:17.016Z,15.00
2019-02-17T16:27:50.314Z,15.13
2019-02-17T16:30:23.337Z,16.20
2019-02-17T16:32:56.463Z,14.47
2019-02-17T16:35:29.559Z,16.62
2019-02-17T16:38:02.738Z,14.05
2019-02-17T16:40:35.554Z,16.30
2019-02-17T16:43:08.508Z,14.58
2019-02-17T16:45:41.704Z,14.63
2019-02-17T16:48:14.790Z,17.32
2019-02-17T16:50:47.994Z,14.58
2019-02-17T16:53:20.962Z,16.07
2019-02-17T16:55:53.742Z,18.40
2019-02-17T16:58:27.645Z,16.02
2019-02-17T17:01:00.793Z,15.88
2019-02-17T17:03:33.947Z,18.15
2019-02-17T17:06:06.946Z,20.35
2019-02-17T17:08:39.864Z,14.63
2019-02-17T17:11:12.968Z,12.90
2019-02-17T17:13:45.740Z,16.57
2019-02-17T17:16:18.698Z,11.65
2019-02-17T17:18:51.646Z,13.85
2019-02-17T17:21:24.740Z,16.82
2019-02-17T17:23:57.880Z,15.03
2019-02-17T17:26:31.020Z,14.83
2019-02-17T17:29:04.159Z,15.93
2019-02-17T17:31:37.255Z,16.40
2019-02-17T17:34:10.400Z,16.07
2019-02-17T17:36:43.844Z,18.67
2019-02-17T17:39:16.739Z,14.95
2019-02-17T17:41:49.855Z,15.98
2019-02-17T17:44:22.778Z,14.73
2019-02-17T17:46:55.935Z,17.10
2019-02-17T17:49:29.088Z,14.63
2019-02-17T17:52:02.251Z,14.73
2019-02-17T17:54:35.314Z,15.78
2019-02-17T17:57:08.233Z,16.45
2019-02-17T17:59:41.219Z,13.90
2019-02-17T18:02:14.168Z,15.35
2019-02-17T18:04:47.170Z,13.83
2019-02-17T18:07:20.363Z,16.75
2019-02-17T18:09:53.398Z,18.17
2019-02-17T18:12:26.433Z,14.65
2019-02-17T18:14:59.746Z,14.50
2019-02-17T18:17:32.880Z,14.10
2019-02-17T18:20:06.813Z,18.70
2019-02-17T18:22:39.980Z,13.93
2019-02-17T18:25:12.960Z,14.87
2019-02-17T18:27:45.989Z,14.10
2019-02-17T18:30:18.824Z,14.18
2019-02-17T18:32:52.030Z,14.70
2019-02-17T18:35:25.083Z,16.10
2019-02-17T18:37:57.968Z,18.98
2019-02-17T18:40:31.167Z,13.98
2019-02-17T18:43:04.306Z,14.70
2019-02-17T18:45:37.146Z,19.30
2019-02-17T18:48:10.181Z,14.47
2019-02-17T18:50:43.029Z,15.98
2019-02-17T18:53:15.874Z,15.65
2019-02-17T18:55:48.909Z,12.20
2019-02-17T18:58:21.831Z,15.45
2019-02-17T19:00:54.655Z,15.98
2019-02-17T19:03:27.795Z,13.32
2019-02-17T19:06:00.910Z,17.70
2019-02-17T19:08:33.978Z,14.90
2019-02-17T19:11:06.864Z,14.40
2019-02-17T19:13:40.155Z,14.33
2019-02-17T19:16:13.201Z,12.98
2019-02-17T19:18:46.205Z,13.50
2019-02-17T19:21:19.095Z,15.38
2019-02-17T19:23:52.001Z,14.87
2019-02-17T19:26:24.815Z,18.10
2019-02-17T19:28:57.876Z,16.03
2019-02-17T19:31:30.789Z,13.17
2019-02-17T19:34:04.040Z,15.43
2019-02-17T19:36:37.109Z,13.95
2019-02-17T19:39:10.335Z,13.10
2019-02-17T19:41:43.996Z,14.70
2019-02-17T19:44:16.921Z,15.07
2019-02-17T19:46:49.926Z,16.90
2019-02-17T19:49:22.966Z,13.30
2019-02-17T19:51:55.922Z,16.30
2019-02-17T19:54:28.966Z,19.17
2019-02-17T19:57:01.829Z,21.03
2019-02-17T19:59:34.746Z,26.70
2019-02-17T20:02:07.644Z,22.30
2019-02-17T20:04:46.357Z,26.87
2019-02-17T20:07:19.385Z,18.80
2019-02-17T20:09:52.615Z,15.30
2019-02-17T20:12:25.797Z,16.30
2019-02-17T20:14:58.841Z,17.13
2019-02-17T20:17:31.989Z,17.07
2019-02-17T20:20:05.174Z,16.33
2019-02-17T20:22:39.373Z,20.30
2019-02-17T20:25:12.526Z,20.33
2019-02-17T20:27:45.482Z,15.73
2019-02-17T20:30:18.460Z,19.63
2019-02-17T20:32:51.382Z,14.03
2019-02-17T20:35:24.510Z,16.90
2019-02-17T20:37:57.526Z,24.83
2019-02-17T20:40:30.261Z,17.57
2019-02-17T20:43:03.399Z,16.80
2019-02-17T20:45:36.917Z,29.77
2019-02-17T20:48:10.092Z,50.90
2019-02-17T20:50:43.199Z,32.43
2019-02-17T20:53:16.706Z,27.53
2019-02-17T20:55:49.651Z,26.30
2019-02-17T20:58:22.575Z,20.87
2019-02-17T21:00:55.626Z,27.73
2019-02-17T21:03:28.812Z,17.13
2019-02-17T21:06:12.200Z,18.83
2019-02-17T21:08:36.646Z,22.33
2019-02-17T21:11:09.728Z,21.00
2019-02-17T21:13:42.659Z,19.13
2019-02-17T21:16:15.649Z,19.30
2019-02-17T21:18:48.648Z,15.63
2019-02-17T21:21:21.651Z,16.17
2019-02-17T21:23:55.093Z,20.10
2019-02-17T21:26:28.087Z,15.83
2019-02-17T21:29:01.293Z,15.20
2019-02-17T21:31:34.257Z,14.47
2019-02-17T21:34:07.132Z,22.00
2019-02-17T21:36:40.283Z,16.60
2019-02-17T21:39:13.764Z,19.83
2019-02-17T21:41:46.813Z,19.63
2019-02-17T21:44:19.723Z,19.07
2019-02-17T21:46:52.957Z,17.40
2019-02-17T21:49:25.878Z,16.83
2019-02-17T21:51:58.881Z,16.93
2019-02-17T21:54:31.723Z,16.90
2019-02-17T21:57:04.722Z,15.90
2019-02-17T21:59:37.787Z,15.07
2019-02-17T22:02:11.039Z,18.83
2019-02-17T22:04:44.384Z,20.67
2019-02-17T22:07:17.862Z,19.53
2019-02-17T22:09:51.292Z,16.50
2019-02-17T22:12:24.383Z,23.07
2019-02-17T22:14:57.338Z,17.73
2019-02-17T22:17:30.257Z,21.73
2019-02-17T22:20:03.433Z,20.57
2019-02-17T22:22:37.768Z,17.50
2019-02-17T22:25:10.746Z,21.43
2019-02-17T22:27:44.048Z,22.77
2019-02-17T22:30:16.923Z,18.63
2019-02-17T22:32:49.927Z,21.47
2019-02-17T22:35:22.799Z,16.10
2019-02-17T22:37:55.803Z,18.33
2019-02-17T22:40:29.077Z,19.03
2019-02-17T22:43:02.107Z,18.13
2019-02-17T22:45:35.342Z,18.23
2019-02-17T22:48:08.540Z,18.23
2019-02-17T22:50:41.697Z,19.00
2019-02-17T22:53:14.593Z,16.67
2019-02-17T22:55:47.698Z,18.30
2019-02-17T22:58:20.781Z,17.73
2019-02-17T23:01:02.417Z,22.50
2019-02-17T23:03:37.072Z,20.27
2019-02-17T23:06:10.112Z,19.97
2019-02-17T23:08:43.088Z,18.80
2019-02-17T23:11:16.082Z,17.33
2019-02-17T23:13:49.323Z,16.90
2019-02-17T23:16:22.674Z,22.27
2019-02-17T23:18:55.812Z,22.23
2019-02-17T23:21:28.819Z,17.77
2019-02-17T23:24:01.734Z,15.57
2019-02-17T23:26:34.567Z,20.57
2019-02-17T23:29:13.100Z,19.27
2019-02-17T23:31:46.017Z,16.80
2019-02-17T23:34:20.274Z,14.40
2019-02-17T23:36:53.282Z,23.47
2019-02-17T23:39:26.574Z,16.63
2019-02-17T23:41:59.579Z,18.87
2019-02-17T23:44:32.499Z,20.43
2019-02-17T23:47:05.518Z,17.27
2019-02-17T23:49:38.459Z,17.27
2019-02-17T23:52:11.539Z,18.87
2019-02-17T23:54:44.904Z,19.70
2019-02-17T23:57:18.128Z,18.23
